KBGD/BGD METAR and TAF weather

Enter ICAO airport designator
Station Type Date Time Source
KBGD METAR 2020/09/18 23:51 UTC NOAA

KBGD 182351Z AUTO 14007KT 7SM CLR 28/08 A3020 RMK AO2 SLP192 T02780078 10300 20261 55005


Station Type Date Time Source
KBGD Decoded METAR 2020/09/18 23:51 UTC NOAA

BORGER HUTCHINSON CO AIRPORT , TX, United States (KBGD) 35-42N 101-24W 927M
Sep 18, 2020 - 07:51 PM EDT / 2020.09.18 2351 UTC
Wind: from the SE (140 degrees) at 8 MPH (7 KT):0
Visibility: 7 mile(s):0
Sky conditions: clear
Temperature: 82.0 F (27.8 C)
Dew Point: 46.0 F (7.8 C)
Relative Humidity: 28%
Pressure (altimeter): 30.2 in. Hg (1022 hPa)
Pressure tendency: 0.01 inches (0.5 hPa) lower than three hours ago
ob: KBGD 182351Z AUTO 14007KT 7SM CLR 28/08 A3020 RMK AO2 SLP192 T02780078 10300 20261 55005
cycle: 0

Station Type Date Time Source
KBGD TAF UTC NOAA

Error!

Example: see airport list